Time;durP1;ratioP1;P1;durP2;ratioP2;P2;SDS_P1;SDS_P2;PMS_P1;PMS_P2;Temp;Humidity;BMP_temperature;BMP_pressure;BME280_temperature;BME280_humidity;BME280_pressure;Samples;Min_cycle;Max_cycle;Signal;HPM_P1;HPM_P2
2022/03/12 00:01:00;;;;;;;7.53;5.40;;;9.10;83.70;;;;;;4952433;28;20043;-57
2022/03/12 00:03:25;;;;;;;8.02;6.10;;;8.90;85.50;;;;;;4935355;29;20118;-57
2022/03/12 00:05:58;;;;;;;9.05;5.53;;;8.90;85.40;;;;;;4952385;29;20110;-61
2022/03/12 00:08:44;;;;;;;9.48;5.38;;;8.70;82.20;;;;;;4935493;29;20043;-61
2022/03/12 00:11:17;;;;;;;9.82;5.72;;;8.80;86.20;;;;;;4952303;28;20497;-61
2022/03/12 00:13:44;;;;;;;9.20;4.97;;;8.70;86.30;;;;;;4935275;29;20104;-61
2022/03/12 00:16:14;;;;;;;6.18;5.07;;;8.70;86.00;;;;;;4952372;29;20043;-62
2022/03/12 00:18:43;;;;;;;9.23;6.05;;;8.40;86.40;;;;;;4952339;29;20039;-61
2022/03/12 00:21:13;;;;;;;11.30;5.70;;;8.50;86.40;;;;;;4952042;28;20050;-61
2022/03/12 00:23:45;;;;;;;11.05;5.25;;;8.40;86.50;;;;;;4952194;29;20085;-61
2022/03/12 00:26:11;;;;;;;11.82;6.32;;;8.40;84.80;;;;;;4952262;29;20155;-61
2022/03/12 00:28:37;;;;;;;9.52;5.97;;;8.50;86.80;;;;;;4952021;29;20075;-61
2022/03/12 00:31:03;;;;;;;10.13;6.05;;;8.50;84.90;;;;;;4952235;28;20079;-61
2022/03/12 00:33:29;;;;;;;9.10;5.97;;;8.50;86.40;;;;;;4951939;29;20059;-61
2022/03/12 00:35:55;;;;;;;12.93;6.43;;;8.50;86.70;;;;;;4952023;29;20055;-61
2022/03/12 00:38:22;;;;;;;8.65;5.60;;;8.50;86.80;;;;;;4951854;29;20051;-60
2022/03/12 00:40:48;;;;;;;9.50;5.55;;;8.40;87.20;;;;;;4951740;28;20393;-61
2022/03/12 00:43:15;;;;;;;9.90;5.93;;;8.40;86.70;;;;;;4952102;28;20043;-61
2022/03/12 00:45:41;;;;;;;9.15;6.15;;;8.40;85.20;;;;;;4954076;28;20053;-61
2022/03/12 00:48:07;;;;;;;9.82;6.05;;;8.20;86.80;;;;;;4955476;29;20043;-61
2022/03/12 00:50:33;;;;;;;9.52;6.07;;;8.30;87.00;;;;;;4955255;28;20043;-56
2022/03/12 00:53:00;;;;;;;9.30;6.43;;;8.30;87.00;;;;;;4937946;29;20078;-62
2022/03/12 00:55:26;;;;;;;8.40;5.15;;;8.30;85.10;;;;;;4955272;29;20039;-62
2022/03/12 00:57:51;;;;;;;8.45;5.78;;;8.30;86.80;;;;;;4937830;28;20397;-62
2022/03/12 01:00:19;;;;;;;9.70;6.03;;;8.10;85.00;;;;;;4937872;29;20540;-62
2022/03/12 01:02:46;;;;;;;9.75;6.03;;;8.30;86.90;;;;;;4955217;28;20043;-62
2022/03/12 01:05:16;;;;;;;10.60;5.38;;;8.20;87.20;;;;;;4954994;29;20118;-62
2022/03/12 01:07:42;;;;;;;8.00;5.40;;;8.30;86.80;;;;;;4938050;29;20062;-62
2022/03/12 01:10:08;;;;;;;11.50;6.13;;;8.40;84.10;;;;;;4955041;28;20366;-60
2022/03/12 01:12:34;;;;;;;9.05;5.78;;;8.40;86.70;;;;;;4954906;29;20039;-62
2022/03/12 01:15:00;;;;;;;9.52;6.15;;;8.30;87.00;;;;;;4937609;28;20051;-62
2022/03/12 01:17:26;;;;;;;6.30;4.68;;;8.30;86.50;;;;;;4954917;29;20039;-62
2022/03/12 01:19:51;;;;;;;8.57;6.30;;;8.30;86.60;;;;;;4954762;29;20123;-62
2022/03/12 01:22:20;;;;;;;9.65;5.93;;;8.30;86.40;;;;;;4954977;29;20397;-62
2022/03/12 01:24:49;;;;;;;9.07;6.47;;;8.20;86.60;;;;;;4954927;29;20043;-62
2022/03/12 01:27:15;;;;;;;10.98;5.95;;;8.10;87.10;;;;;;4954684;29;20071;-62
2022/03/12 01:29:42;;;;;;;6.78;4.95;;;8.30;86.40;;;;;;4953011;28;20049;-62
2022/03/12 01:32:09;;;;;;;10.13;5.57;;;8.30;86.90;;;;;;4918123;29;20048;-62
2022/03/12 01:34:35;;;;;;;7.18;5.10;;;8.50;84.80;;;;;;4935485;28;20044;-62
2022/03/12 01:37:00;;;;;;;7.13;5.30;;;8.40;86.00;;;;;;4935266;29;20044;-62
2022/03/12 01:39:27;;;;;;;8.55;5.38;;;8.60;84.40;;;;;;4934180;29;20134;-62
2022/03/12 01:41:53;;;;;;;12.52;5.50;;;8.30;86.20;;;;;;4935562;28;20126;-62
2022/03/12 01:44:18;;;;;;;8.45;6.03;;;8.30;86.00;;;;;;4936997;28;20555;-62
2022/03/12 01:46:46;;;;;;;11.88;5.10;;;8.30;86.00;;;;;;4954438;29;20050;-62
2022/03/12 01:49:22;;;;;;;8.52;5.35;;;8.50;84.20;;;;;;4954450;29;20071;-62
2022/03/12 01:51:50;;;;;;;7.80;5.65;;;8.60;84.00;;;;;;4954511;28;20404;-62
2022/03/12 01:54:23;;;;;;;8.93;5.50;;;8.40;86.20;;;;;;4954349;29;20450;-62
2022/03/12 01:56:49;;;;;;;9.65;5.60;;;8.50;86.10;;;;;;4936169;29;20052;-62
2022/03/12 01:59:16;;;;;;;9.38;4.93;;;8.20;84.40;;;;;;4937272;28;20118;-62
2022/03/12 02:01:41;;;;;;;9.48;5.43;;;8.70;83.90;;;;;;4936855;29;20047;-62
2022/03/12 02:04:08;;;;;;;11.85;6.15;;;8.50;85.60;;;;;;4954043;29;20039;-62
2022/03/12 02:06:34;;;;;;;10.02;4.82;;;8.50;84.00;;;;;;4954275;29;20153;-61
2022/03/12 02:09:02;;;;;;;11.32;5.70;;;8.70;83.90;;;;;;4936886;29;20128;-62
2022/03/12 02:11:29;;;;;;;11.57;5.97;;;8.50;85.80;;;;;;4936697;29;20058;-62
2022/03/12 02:14:09;;;;;;;8.85;5.50;;;8.50;83.80;;;;;;4954087;28;20054;-62
2022/03/12 02:16:35;;;;;;;9.27;6.18;;;8.40;85.70;;;;;;4953911;29;20043;-62
2022/03/12 02:19:01;;;;;;;8.70;5.72;;;8.60;83.90;;;;;;4936806;29;20079;-62
2022/03/12 02:21:38;;;;;;;9.43;6.40;;;8.50;85.90;;;;;;4936549;29;20047;-62
2022/03/12 02:24:12;;;;;;;9.05;5.28;;;8.50;85.80;;;;;;4936655;29;20082;-62
2022/03/12 02:26:41;;;;;;;6.47;4.72;;;8.70;84.00;;;;;;4953916;29;20404;-62
2022/03/12 02:29:09;;;;;;;9.30;6.28;;;8.60;85.70;;;;;;4953655;29;20035;-62
2022/03/12 02:31:36;;;;;;;11.23;5.82;;;8.70;85.50;;;;;;4953624;28;20075;-62
2022/03/12 02:34:02;;;;;;;11.40;5.70;;;8.60;83.70;;;;;;4953817;28;20098;-62
2022/03/12 02:36:31;;;;;;;7.82;5.10;;;8.60;85.60;;;;;;4936842;29;20051;-62
2022/03/12 02:38:58;;;;;;;7.40;5.80;;;8.40;84.00;;;;;;4936450;28;20085;-62
2022/03/12 02:41:24;;;;;;;9.75;5.97;;;8.70;83.90;;;;;;4937113;28;20082;-62
2022/03/12 02:43:50;;;;;;;7.55;5.43;;;8.50;85.90;;;;;;4953525;29;20501;-56
2022/03/12 02:46:17;;;;;;;9.50;5.75;;;8.50;86.10;;;;;;4936309;28;20047;-62
2022/03/12 02:48:51;;;;;;;11.50;5.68;;;8.40;86.70;;;;;;4936585;29;20047;-54
2022/03/12 02:51:18;;;;;;;10.00;5.25;;;8.40;86.30;;;;;;4936044;29;20055;-57
2022/03/12 02:53:44;;;;;;;6.88;5.13;;;8.50;87.10;;;;;;4953381;29;20043;-57
2022/03/12 02:56:11;;;;;;;10.25;6.07;;;8.50;84.20;;;;;;4953571;29;20043;-58
2022/03/12 02:58:37;;;;;;;8.70;5.45;;;8.50;86.10;;;;;;4953193;29;20039;-57
2022/03/12 03:01:03;;;;;;;8.70;5.72;;;8.50;86.60;;;;;;4953670;28;20046;-56
2022/03/12 03:03:32;;;;;;;8.15;5.82;;;8.30;86.50;;;;;;4953317;29;20054;-62
2022/03/12 03:05:58;;;;;;;8.05;5.80;;;8.30;84.50;;;;;;4935973;29;20092;-62
2022/03/12 03:08:24;;;;;;;10.48;5.78;;;8.50;86.60;;;;;;4953081;29;20035;-62
2022/03/12 03:10:52;;;;;;;8.82;5.68;;;8.50;84.80;;;;;;4953249;28;20536;-62
2022/03/12 03:13:18;;;;;;;12.50;6.20;;;8.50;86.50;;;;;;4953237;29;20066;-62
2022/03/12 03:15:51;;;;;;;8.48;6.20;;;8.40;84.80;;;;;;4953143;28;20493;-62
2022/03/12 03:18:21;;;;;;;13.93;5.75;;;8.50;87.20;;;;;;4935876;28;20043;-62
2022/03/12 03:20:49;;;;;;;10.07;6.10;;;8.50;87.00;;;;;;4953000;28;20042;-62
2022/03/12 03:23:15;;;;;;;15.10;5.97;;;8.50;85.30;;;;;;4936034;29;20047;-62
2022/03/12 03:25:41;;;;;;;8.23;6.20;;;8.50;87.60;;;;;;4953073;29;20054;-62
2022/03/12 03:28:08;;;;;;;10.27;6.53;;;8.30;87.90;;;;;;4952821;29;20477;-62
2022/03/12 03:30:39;;;;;;;9.15;6.50;;;8.30;86.20;;;;;;4952907;28;20035;-62
2022/03/12 03:33:10;;;;;;;8.77;5.28;;;8.30;88.30;;;;;;4952849;29;20051;-62
2022/03/12 03:35:38;;;;;;;11.15;6.05;;;8.40;88.10;;;;;;4952748;29;20477;-62
2022/03/12 03:38:04;;;;;;;15.23;6.38;;;8.40;88.50;;;;;;4952653;29;20408;-54
2022/03/12 03:40:30;;;;;;;10.45;5.72;;;8.40;88.90;;;;;;4952853;28;20043;-56
2022/03/12 03:42:56;;;;;;;10.48;6.32;;;8.60;86.60;;;;;;4935619;29;20047;-56
2022/03/12 03:45:27;;;;;;;10.30;6.20;;;8.40;88.60;;;;;;4935706;28;20043;-56
2022/03/12 03:47:54;;;;;;;9.82;5.78;;;8.40;88.60;;;;;;4952787;29;20039;-56
2022/03/12 03:50:25;;;;;;;9.57;6.47;;;8.40;86.40;;;;;;4952525;28;20497;-56
2022/03/12 03:53:04;;;;;;;8.35;5.85;;;8.40;86.50;;;;;;4952495;29;20043;-56
2022/03/12 03:55:34;;;;;;;9.10;6.20;;;8.30;87.30;;;;;;4952655;29;20116;-56
2022/03/12 03:58:03;;;;;;;9.70;6.07;;;8.40;89.70;;;;;;4952365;28;20759;-56
2022/03/12 04:00:29;;;;;;;10.27;6.05;;;8.40;89.60;;;;;;4935584;29;20118;-57
2022/03/12 04:03:07;;;;;;;10.40;6.00;;;8.10;88.30;;;;;;4952658;29;20118;-55
2022/03/12 04:05:37;;;;;;;10.73;6.72;;;8.20;90.10;;;;;;4952273;29;20043;-57
2022/03/12 04:08:07;;;;;;;11.57;6.60;;;8.20;88.10;;;;;;4935530;29;20485;-55
2022/03/12 04:10:34;;;;;;;9.63;6.47;;;8.40;88.90;;;;;;4952379;28;20054;-57
2022/03/12 04:13:00;;;;;;;11.35;6.88;;;8.00;90.30;;;;;;4952293;29;20043;-56
2022/03/12 04:15:26;;;;;;;7.43;5.68;;;8.00;89.30;;;;;;4952162;29;20096;-56
2022/03/12 04:17:53;;;;;;;13.20;5.90;;;8.00;90.70;;;;;;4952312;29;20374;-57
2022/03/12 04:20:20;;;;;;;10.95;6.95;;;8.00;89.80;;;;;;4951627;28;20043;-56
2022/03/12 04:22:51;;;;;;;15.80;6.43;;;8.00;90.80;;;;;;4952268;29;20132;-57
2022/03/12 04:25:18;;;;;;;9.38;6.15;;;8.10;90.90;;;;;;4935266;29;20047;-57
2022/03/12 04:27:44;;;;;;;13.88;6.53;;;8.00;90.80;;;;;;4952357;29;20047;-57
2022/03/12 04:30:14;;;;;;;13.88;6.72;;;8.00;91.30;;;;;;4951953;28;20493;-57
2022/03/12 04:32:42;;;;;;;10.18;7.00;;;8.00;91.30;;;;;;4951957;29;20059;-56
2022/03/12 04:35:08;;;;;;;11.70;6.65;;;8.00;91.50;;;;;;4918899;29;20549;-57
2022/03/12 04:37:35;;;;;;;9.30;6.55;;;8.10;91.30;;;;;;4952107;28;20123;-56
2022/03/12 04:40:04;;;;;;;10.05;6.22;;;7.90;91.50;;;;;;4952023;28;20097;-56
2022/03/12 04:42:29;;;;;;;11.40;6.47;;;7.80;92.20;;;;;;4952013;29;20149;-56
2022/03/12 04:44:55;;;;;;;11.80;6.93;;;7.80;92.30;;;;;;4951803;28;20039;-56
2022/03/12 04:47:21;;;;;;;10.00;6.43;;;7.70;92.60;;;;;;4951784;29;20039;-55
2022/03/12 04:49:47;;;;;;;8.35;5.78;;;7.70;92.80;;;;;;4951956;29;20074;-56
2022/03/12 04:52:13;;;;;;;12.23;7.03;;;7.70;91.90;;;;;;4934402;29;20053;-55
2022/03/12 04:54:39;;;;;;;9.38;6.68;;;7.40;92.40;;;;;;4951786;29;20040;-57
2022/03/12 04:57:05;;;;;;;11.15;7.00;;;7.50;93.50;;;;;;4950849;28;20055;-57
2022/03/12 04:59:31;;;;;;;13.05;6.45;;;7.50;93.60;;;;;;4951698;28;20416;-60
2022/03/12 05:01:59;;;;;;;15.23;7.20;;;7.50;93.60;;;;;;4951519;28;20047;-61
2022/03/12 05:04:24;;;;;;;12.77;6.72;;;7.40;93.50;;;;;;4967884;28;20124;-60
2022/03/12 05:06:50;;;;;;;10.55;6.63;;;7.60;92.90;;;;;;4971045;28;20093;-60
2022/03/12 05:09:15;;;;;;;11.07;6.03;;;7.60;93.00;;;;;;4970492;28;20054;-60
2022/03/12 05:11:41;;;;;;;11.40;6.57;;;7.50;93.70;;;;;;4970845;28;20043;-61
2022/03/12 05:14:10;;;;;;;12.63;8.65;;;7.40;95.00;;;;;;4970730;28;20043;-60
2022/03/12 05:16:36;;;;;;;10.40;7.68;;;7.30;95.60;;;;;;4970159;28;20634;-61
2022/03/12 05:19:06;;;;;;;11.18;6.85;;;7.20;96.50;;;;;;4971373;28;20104;-61
2022/03/12 05:21:32;;;;;;;11.70;7.20;;;7.20;97.30;;;;;;4970839;28;20034;-61
2022/03/12 05:23:57;;;;;;;12.82;8.35;;;7.10;96.70;;;;;;4970768;28;20061;-61
2022/03/12 05:26:23;;;;;;;10.93;6.85;;;7.10;97.90;;;;;;4970680;28;20075;-61
2022/03/12 05:28:49;;;;;;;12.05;7.82;;;7.00;97.40;;;;;;4970476;28;20051;-61
2022/03/12 05:31:15;;;;;;;11.25;7.13;;;7.10;97.60;;;;;;4969857;28;20041;-61
2022/03/12 05:33:40;;;;;;;10.65;7.68;;;7.30;97.20;;;;;;4962292;28;20136;-61
2022/03/12 05:36:06;;;;;;;11.88;7.25;;;7.20;96.40;;;;;;4974013;28;20085;-61
2022/03/12 05:38:34;;;;;;;12.40;7.03;;;7.10;97.30;;;;;;4973728;28;20050;-61
2022/03/12 05:41:00;;;;;;;11.02;6.72;;;7.20;96.80;;;;;;4974078;28;20547;-61
2022/03/12 05:43:26;;;;;;;9.63;7.28;;;7.10;97.00;;;;;;4973876;28;20125;-61
2022/03/12 05:45:52;;;;;;;9.98;6.15;;;7.10;97.10;;;;;;4958357;28;20074;-60
2022/03/12 05:48:19;;;;;;;11.82;6.93;;;7.20;97.40;;;;;;4954562;29;20047;-61
2022/03/12 05:50:48;;;;;;;10.90;6.70;;;7.10;96.30;;;;;;4954354;28;20047;-61
2022/03/12 05:53:16;;;;;;;11.95;7.85;;;7.20;97.10;;;;;;4954451;29;20096;-61
2022/03/12 05:55:42;;;;;;;10.68;6.63;;;7.20;95.90;;;;;;4954339;29;20043;-61
2022/03/12 05:58:09;;;;;;;11.65;7.22;;;7.40;96.40;;;;;;4957202;28;20397;-60
2022/03/12 06:00:35;;;;;;;12.18;8.20;;;7.30;97.20;;;;;;4952086;28;20049;-60
2022/03/12 06:03:01;;;;;;;12.00;7.53;;;7.30;97.00;;;;;;4955030;28;20062;-61
2022/03/12 06:05:27;;;;;;;11.20;7.40;;;7.40;96.10;;;;;;4973072;28;20115;-60
2022/03/12 06:07:54;;;;;;;12.35;8.00;;;7.40;96.90;;;;;;4955409;28;20054;-60
2022/03/12 06:10:28;;;;;;;11.55;7.35;;;7.40;97.10;;;;;;4973237;28;20049;-55
2022/03/12 06:12:56;;;;;;;11.25;7.22;;;7.40;97.10;;;;;;4973285;28;20053;-58
2022/03/12 06:15:23;;;;;;;11.00;6.50;;;7.40;97.30;;;;;;4972534;28;20042;-57
2022/03/12 06:17:49;;;;;;;13.98;7.38;;;7.40;96.90;;;;;;4973337;28;20493;-58
2022/03/12 06:20:17;;;;;;;16.08;8.80;;;7.50;96.20;;;;;;4973082;28;20449;-58
2022/03/12 06:22:43;;;;;;;9.88;7.50;;;7.30;96.30;;;;;;4973100;28;20523;-58
2022/03/12 06:25:12;;;;;;;12.82;7.38;;;7.40;97.20;;;;;;4972889;28;20517;-58
2022/03/12 06:27:39;;;;;;;11.70;7.38;;;7.50;97.00;;;;;;4973256;28;20088;-58
2022/03/12 06:30:11;;;;;;;13.25;8.18;;;7.50;96.10;;;;;;4973122;28;20122;-58
2022/03/12 06:32:38;;;;;;;10.98;7.53;;;7.70;96.00;;;;;;4973027;28;20496;-58
2022/03/12 06:35:05;;;;;;;12.55;7.63;;;7.30;96.10;;;;;;4973115;28;20439;-58
2022/03/12 06:37:31;;;;;;;13.50;8.02;;;7.30;96.80;;;;;;4972473;28;20122;-58
2022/03/12 06:39:58;;;;;;;18.33;8.00;;;7.40;96.70;;;;;;4955797;28;20053;-58
2022/03/12 06:42:25;;;;;;;13.25;7.90;;;7.40;96.80;;;;;;4938533;28;20043;-58
2022/03/12 06:44:53;;;;;;;12.68;7.25;;;7.30;96.80;;;;;;4965565;28;20114;-56
2022/03/12 06:47:19;;;;;;;10.85;7.85;;;7.10;95.90;;;;;;4952937;29;20516;-62
2022/03/12 06:49:45;;;;;;;17.30;7.72;;;7.30;96.00;;;;;;4936304;29;20047;-62
2022/03/12 06:52:11;;;;;;;14.30;8.20;;;7.30;96.50;;;;;;4953290;28;20070;-63
2022/03/12 06:54:36;;;;;;;12.50;6.68;;;7.40;96.00;;;;;;4936123;29;20054;-62
2022/03/12 06:57:04;;;;;;;12.15;7.18;;;7.40;96.30;;;;;;4962130;28;20046;-61
2022/03/12 06:59:30;;;;;;;11.73;7.57;;;;;;;;;;4970492;28;20490;-62
2022/03/12 07:01:55;;;;;;;13.50;7.82;;;7.50;95.20;;;;;;4969933;28;20192;-59
2022/03/12 07:04:21;;;;;;;16.38;7.38;;;7.60;95.90;;;;;;4969163;28;20408;-60
2022/03/12 07:06:48;;;;;;;10.77;7.35;;;7.60;95.70;;;;;;4952186;28;20042;-60
2022/03/12 07:09:15;;;;;;;10.98;8.18;;;8.00;94.30;;;;;;4969307;28;20496;-58
2022/03/12 07:11:41;;;;;;;11.40;6.72;;;;;;;;;;4969809;28;20091;-60
2022/03/12 07:14:06;;;;;;;12.52;7.13;;;8.60;94.80;;;;;;4969323;28;20143;-60
2022/03/12 07:16:33;;;;;;;13.25;8.75;;;;;;;;;;4965435;28;20035;-61
2022/03/12 07:18:59;;;;;;;10.13;7.13;;;;;;;;;;4932100;28;20166;-61
2022/03/12 07:21:24;;;;;;;12.55;7.38;;;9.80;92.60;;;;;;4929818;28;20058;-61
2022/03/12 07:23:50;;;;;;;8.82;6.95;;;10.40;91.60;;;;;;4950368;28;20047;-62
2022/03/12 07:26:16;;;;;;;9.98;7.22;;;10.20;92.30;;;;;;4935436;28;20054;-62
2022/03/12 07:28:42;;;;;;;14.35;8.15;;;;;;;;;;4951174;28;20031;-61
2022/03/12 07:31:08;;;;;;;12.65;7.93;;;10.90;91.80;;;;;;5010527;28;20033;-62
2022/03/12 07:33:34;;;;;;;12.23;8.02;;;10.80;91.40;;;;;;5031496;28;20103;-60
2022/03/12 07:35:59;;;;;;;15.80;8.88;;;10.70;90.70;;;;;;4966318;28;20043;-58
2022/03/12 07:38:26;;;;;;;11.82;8.38;;;;;;;;;;4953051;28;20139;-63
2022/03/12 07:40:52;;;;;;;11.45;7.70;;;;;;;;;;4968229;28;20053;-61
2022/03/12 07:43:18;;;;;;;12.18;8.25;;;;;;;;;;4967814;28;20500;-62
2022/03/12 07:45:44;;;;;;;12.68;7.78;;;11.50;90.60;;;;;;4939940;28;20057;-62
2022/03/12 07:48:12;;;;;;;10.65;7.15;;;11.60;89.20;;;;;;4967005;28;20130;-61
2022/03/12 07:50:37;;;;;;;11.18;7.97;;;11.90;90.70;;;;;;4966756;28;20050;-62
2022/03/12 07:53:03;;;;;;;12.27;8.52;;;12.20;90.30;;;;;;4967991;28;20050;-60
2022/03/12 07:55:29;;;;;;;12.77;7.78;;;12.70;90.40;;;;;;5020726;28;20052;-60
2022/03/12 07:57:55;;;;;;;9.95;7.07;;;;;;;;;;5047552;28;20041;-59
2022/03/12 08:00:21;;;;;;;11.98;7.25;;;12.30;89.10;;;;;;4967257;28;20043;-59
2022/03/12 08:02:47;;;;;;;10.93;7.30;;;11.90;89.80;;;;;;4962232;28;20066;-61
2022/03/12 08:05:13;;;;;;;14.57;8.55;;;11.80;90.60;;;;;;4965009;28;20046;-62
2022/03/12 08:07:39;;;;;;;11.05;7.93;;;;;;;;;;5020228;28;20537;-61
2022/03/12 08:10:07;;;;;;;12.43;7.60;;;11.50;90.00;;;;;;4932284;28;20048;-63
2022/03/12 08:12:34;;;;;;;12.63;7.18;;;;;;;;;;4972669;28;20095;-63
2022/03/12 08:15:05;;;;;;;12.00;7.45;;;;;;;;;;4966174;28;20516;-62
2022/03/12 08:17:31;;;;;;;12.13;6.93;;;;;;;;;;4962662;28;20050;-62
2022/03/12 08:19:58;;;;;;;13.25;8.60;;;;;;;;;;4962722;28;20047;-61
2022/03/12 08:22:23;;;;;;;11.93;8.02;;;12.60;90.80;;;;;;4962595;28;20057;-62
2022/03/12 08:24:49;;;;;;;11.50;7.78;;;;;;;;;;4963010;28;20496;-62
2022/03/12 08:27:16;;;;;;;15.73;8.25;;;;;;;;;;4945218;28;20046;-61
2022/03/12 08:29:43;;;;;;;10.32;7.70;;;12.70;90.30;;;;;;4947097;28;20520;-62
2022/03/12 08:32:09;;;;;;;12.25;8.15;;;;;;;;;;5038679;28;20065;-62
2022/03/12 08:34:36;;;;;;;10.50;7.18;;;12.80;90.70;;;;;;5003269;28;20055;-63
2022/03/12 08:37:03;;;;;;;12.23;8.40;;;12.90;90.20;;;;;;4931257;28;20073;-63
2022/03/12 08:39:29;;;;;;;11.13;7.82;;;;;;;;;;4950702;28;20109;-62
2022/03/12 08:41:55;;;;;;;10.70;7.72;;;;;;;;;;4931753;28;20054;-63
2022/03/12 08:44:21;;;;;;;10.85;8.38;;;;;;;;;;4975930;28;20047;-63
2022/03/12 08:46:47;;;;;;;13.80;9.10;;;14.10;91.30;;;;;;4953600;28;20126;-62
2022/03/12 08:49:14;;;;;;;14.68;8.07;;;14.00;90.00;;;;;;4963657;28;20123;-62
2022/03/12 08:51:41;;;;;;;12.23;8.07;;;14.20;90.70;;;;;;4962616;28;20039;-64
2022/03/12 08:54:08;;;;;;;11.43;7.90;;;14.60;91.10;;;;;;4959660;28;20090;-63
2022/03/12 08:56:34;;;;;;;12.77;7.95;;;15.00;90.80;;;;;;4960166;28;20042;-62
2022/03/12 08:59:00;;;;;;;12.88;8.07;;;15.00;90.10;;;;;;4962622;28;20034;-64
2022/03/12 09:01:26;;;;;;;13.98;8.77;;;15.30;89.40;;;;;;4945682;28;20108;-65
2022/03/12 09:03:51;;;;;;;13.88;8.20;;;15.20;89.10;;;;;;4959791;28;20539;-63
2022/03/12 09:06:18;;;;;;;13.32;8.57;;;15.10;89.30;;;;;;4961523;28;20043;-62
2022/03/12 09:08:45;;;;;;;11.60;8.38;;;14.60;91.00;;;;;;4965501;28;20047;-62
2022/03/12 09:11:16;;;;;;;11.40;8.18;;;14.70;91.30;;;;;;4963234;28;20455;-62
2022/03/12 09:13:42;;;;;;;11.88;8.15;;;14.80;90.70;;;;;;4956932;28;20078;-61
2022/03/12 09:16:07;;;;;;;12.95;7.90;;;14.90;90.90;;;;;;5048219;28;20145;-62
2022/03/12 09:18:33;;;;;;;13.38;8.18;;;15.10;90.50;;;;;;5015577;28;20410;-62
2022/03/12 09:20:59;;;;;;;12.00;8.25;;;15.30;90.60;;;;;;5023546;28;20051;-62
2022/03/12 09:23:24;;;;;;;12.38;9.05;;;15.60;90.70;;;;;;4947509;28;20030;-62
2022/03/12 09:25:51;;;;;;;12.02;8.15;;;15.40;92.00;;;;;;4965929;28;20051;-64
2022/03/12 09:28:19;;;;;;;12.13;7.72;;;15.60;91.30;;;;;;4966340;28;20051;-63
2022/03/12 09:30:50;;;;;;;12.73;7.32;;;15.20;93.20;;;;;;4962821;28;20112;-61
2022/03/12 09:33:17;;;;;;;12.10;7.40;;;15.10;92.30;;;;;;4947828;28;20496;-63
2022/03/12 09:35:43;;;;;;;11.32;7.63;;;15.20;92.50;;;;;;4979197;28;20047;-62
2022/03/12 09:38:09;;;;;;;13.15;7.65;;;15.80;92.90;;;;;;4980508;28;20041;-62
2022/03/12 09:40:35;;;;;;;9.85;7.20;;;16.10;92.60;;;;;;4948849;28;20051;-63
2022/03/12 09:43:02;;;;;;;11.77;7.47;;;16.20;92.40;;;;;;5006197;28;20037;-65
2022/03/12 09:45:28;;;;;;;11.05;7.63;;;15.90;92.60;;;;;;4997505;28;20059;-62
2022/03/12 09:47:54;;;;;;;12.13;7.72;;;16.00;92.90;;;;;;4983916;28;20130;-63
2022/03/12 09:50:21;;;;;;;10.35;6.68;;;16.10;92.80;;;;;;4960104;28;20407;-63
2022/03/12 09:52:47;;;;;;;10.75;6.53;;;16.50;92.80;;;;;;4966574;28;20447;-65
2022/03/12 09:55:12;;;;;;;12.43;7.22;;;16.70;92.40;;;;;;4959581;28;20046;-65
2022/03/12 09:57:38;;;;;;;13.23;6.60;;;16.90;92.20;;;;;;4951235;28;20122;-65
2022/03/12 10:00:06;;;;;;;8.70;6.38;;;17.70;92.10;;;;;;4998984;28;20071;-65
2022/03/12 10:02:32;;;;;;;9.77;7.13;;;17.70;91.70;;;;;;4946597;28;20392;-64
2022/03/12 10:04:57;;;;;;;8.82;6.32;;;18.30;91.70;;;;;;4969360;28;20053;-63
2022/03/12 10:07:23;;;;;;;9.15;6.90;;;18.90;90.80;;;;;;4973495;28;20047;-63
2022/03/12 10:09:49;;;;;;;9.77;6.57;;;19.20;90.90;;;;;;4966745;28;20043;-63
2022/03/12 10:12:15;;;;;;;9.45;6.22;;;19.00;90.70;;;;;;4956239;28;20051;-66
2022/03/12 10:14:40;;;;;;;9.82;6.38;;;19.40;90.50;;;;;;4983218;28;20047;-63
2022/03/12 10:17:06;;;;;;;9.40;6.30;;;19.10;90.30;;;;;;4949780;28;20054;-63
2022/03/12 10:19:34;;;;;;;7.90;5.68;;;19.10;90.70;;;;;;5005600;28;20040;-62
2022/03/12 10:22:00;;;;;;;7.32;5.82;;;18.80;91.40;;;;;;4980378;28;20057;-63
2022/03/12 10:24:26;;;;;;;7.35;5.38;;;18.90;91.20;;;;;;4965346;28;20629;-63
2022/03/12 10:26:51;;;;;;;9.50;6.00;;;19.00;91.00;;;;;;4954089;28;20049;-63
2022/03/12 10:29:17;;;;;;;8.02;6.00;;;19.50;90.90;;;;;;4967898;28;20051;-63
2022/03/12 10:31:43;;;;;;;8.95;5.72;;;19.50;90.60;;;;;;4974135;28;20043;-63
2022/03/12 10:34:16;;;;;;;8.02;6.07;;;19.40;89.80;;;;;;4953965;28;20061;-64
2022/03/12 10:36:41;;;;;;;9.65;6.20;;;19.50;90.60;;;;;;4947778;28;20047;-65
2022/03/12 10:39:09;;;;;;;8.43;5.75;;;18.70;90.90;;;;;;5022139;28;20043;-63
2022/03/12 10:41:36;;;;;;;8.73;5.50;;;18.10;91.60;;;;;;4939243;28;20074;-62
2022/03/12 10:44:03;;;;;;;8.65;5.65;;;17.60;92.10;;;;;;4951411;28;20047;-64
2022/03/12 10:46:30;;;;;;;9.80;6.07;;;17.30;92.00;;;;;;4956896;28;20519;-63
2022/03/12 10:48:59;;;;;;;10.23;6.10;;;16.80;93.10;;;;;;4958010;28;20051;-64
2022/03/12 10:51:31;;;;;;;10.98;6.00;;;16.40;93.60;;;;;;5029302;28;20500;-65
2022/03/12 10:54:15;;;;;;;10.13;5.97;;;16.20;93.90;;;;;;5035015;28;20050;-64
2022/03/12 10:56:54;;;;;;;9.98;6.32;;;15.70;94.80;;;;;;4957726;28;20761;-65
2022/03/12 10:59:23;;;;;;;9.68;6.32;;;15.60;94.90;;;;;;4951274;28;20471;-64
2022/03/12 11:01:51;;;;;;;10.13;6.07;;;15.20;96.20;;;;;;4967429;28;20089;-64
2022/03/12 11:04:26;;;;;;;9.40;6.35;;;15.20;97.00;;;;;;4959159;28;20427;-64
2022/03/12 11:06:54;;;;;;;8.75;6.40;;;15.00;97.10;;;;;;4931108;29;20051;-64
2022/03/12 11:09:37;;;;;;;8.65;6.15;;;14.80;97.80;;;;;;4951217;28;20039;-65
2022/03/12 11:12:29;;;;;;;9.63;6.28;;;14.90;98.70;;;;;;4964549;28;20081;-64
2022/03/12 11:15:05;;;;;;;9.07;6.55;;;14.70;98.70;;;;;;4941339;28;20042;-66
2022/03/12 11:17:41;;;;;;;9.05;6.28;;;14.60;99.00;;;;;;4960675;28;20039;-65
2022/03/12 11:20:08;;;;;;;12.73;6.78;;;14.80;99.90;;;;;;4967406;28;20045;-63
2022/03/12 11:22:34;;;;;;;9.35;6.57;;;14.80;99.10;;;;;;4959366;28;20065;-67
2022/03/12 11:25:00;;;;;;;11.02;6.75;;;14.70;99.80;;;;;;4946440;28;20068;-65
2022/03/12 11:27:31;;;;;;;10.18;6.22;;;14.80;99.50;;;;;;4964274;28;20108;-64
2022/03/12 11:30:08;;;;;;;15.13;6.97;;;14.70;99.90;;;;;;4947297;28;20078;-64
2022/03/12 11:32:44;;;;;;;10.35;6.30;;;14.80;99.90;;;;;;4947232;28;20058;-63
2022/03/12 11:35:11;;;;;;;9.65;6.60;;;14.60;99.80;;;;;;4946777;28;20051;-64
2022/03/12 11:37:38;;;;;;;9.55;5.82;;;14.70;99.90;;;;;;4933674;29;20051;-63
2022/03/12 11:40:08;;;;;;;8.10;5.93;;;14.60;99.90;;;;;;4952439;28;20043;-64
2022/03/12 11:42:35;;;;;;;12.60;6.43;;;14.50;99.90;;;;;;4920678;28;20047;-65
2022/03/12 11:45:04;;;;;;;12.43;7.28;;;14.50;99.90;;;;;;4942766;29;20058;-63
2022/03/12 11:47:38;;;;;;;11.05;6.07;;;14.70;99.90;;;;;;4943863;28;20042;-64
2022/03/12 11:50:08;;;;;;;9.55;6.53;;;14.30;99.90;;;;;;4967743;28;20055;-64
2022/03/12 11:52:35;;;;;;;10.70;5.60;;;14.40;99.90;;;;;;4967827;28;20057;-64
2022/03/12 11:55:03;;;;;;;11.48;5.72;;;14.30;99.90;;;;;;4950941;28;20501;-65
2022/03/12 11:57:32;;;;;;;7.57;5.75;;;14.30;99.90;;;;;;4939088;28;20054;-64
2022/03/12 11:59:58;;;;;;;10.35;6.40;;;14.30;99.90;;;;;;4925649;28;20055;-67
2022/03/12 12:02:33;;;;;;;8.63;6.40;;;14.40;99.90;;;;;;4943638;28;20516;-64
2022/03/12 12:05:10;;;;;;;10.15;5.97;;;14.30;99.90;;;;;;4924473;29;20050;-65
2022/03/12 12:07:36;;;;;;;9.10;6.40;;;14.30;99.90;;;;;;4942863;28;20086;-65
2022/03/12 12:10:39;;;;;;;10.80;5.80;;;14.20;99.90;;;;;;4949799;28;20051;-64
2022/03/12 12:13:04;;;;;;;7.40;5.45;;;14.20;99.90;;;;;;4956358;28;20467;-66
2022/03/12 12:15:34;;;;;;;9.07;5.53;;;14.10;99.90;;;;;;4945428;28;20050;-65
2022/03/12 12:18:02;;;;;;;9.60;6.18;;;14.20;99.90;;;;;;4958007;28;20122;-65
2022/03/12 12:20:29;;;;;;;7.55;5.78;;;14.30;99.90;;;;;;4960548;28;20113;-63
2022/03/12 12:22:59;;;;;;;9.95;5.45;;;14.20;99.90;;;;;;4946965;28;20400;-65
2022/03/12 12:25:28;;;;;;;8.77;5.07;;;14.50;99.90;;;;;;4950665;28;20058;-62
2022/03/12 12:27:54;;;;;;;8.43;4.70;;;14.40;99.90;;;;;;4957834;28;20407;-64
2022/03/12 12:30:42;;;;;;;10.95;5.70;;;14.30;99.90;;;;;;4961273;28;20035;-65
2022/03/12 12:33:22;;;;;;;9.82;4.90;;;14.60;99.90;;;;;;4938192;28;20454;-64
2022/03/12 12:36:08;;;;;;;8.13;5.13;;;14.60;99.90;;;;;;4961154;28;20043;-64
2022/03/12 12:38:33;;;;;;;;;;;14.60;99.90;;;;;;4947591;28;20049;-64
2022/03/12 12:41:03;;;;;;;7.70;5.20;;;14.40;99.90;;;;;;4950477;28;20310;-63
2022/03/12 12:43:34;;;;;;;8.25;4.70;;;14.10;99.90;;;;;;4964928;28;20041;-63
2022/03/12 12:46:18;;;;;;;9.68;4.63;;;14.40;99.90;;;;;;4954513;28;20058;-62
2022/03/12 12:48:48;;;;;;;9.55;5.75;;;14.50;99.90;;;;;;4935133;28;20165;-64
2022/03/12 12:51:19;;;;;;;9.68;5.45;;;14.50;99.90;;;;;;4947976;28;20113;-66
2022/03/12 12:53:52;;;;;;;9.93;6.13;;;14.70;99.90;;;;;;4967758;28;20043;-63
2022/03/12 12:56:36;;;;;;;10.30;6.22;;;14.80;99.90;;;;;;4968096;28;20070;-64